sensor_id;sensor_type;location;lat;lon;timestamp;pressure;altitude;pressure_sealevel;temperature;humidity
78857;BME280;68207;50.078;19.936;2023-05-07T00:00:08;99141.94;;;12.05;74.83
78857;BME280;68207;50.078;19.936;2023-05-07T00:02:33;99144.21;;;12.02;74.86
78857;BME280;68207;50.078;19.936;2023-05-07T00:04:59;99141.96;;;12.00;74.77
78857;BME280;68207;50.078;19.936;2023-05-07T00:07:24;99141.83;;;11.97;74.71
78857;BME280;68207;50.078;19.936;2023-05-07T00:09:50;99139.42;;;11.93;74.67
78857;BME280;68207;50.078;19.936;2023-05-07T00:12:15;99139.98;;;11.91;74.67
78857;BME280;68207;50.078;19.936;2023-05-07T00:14:41;99143.41;;;11.89;74.89
78857;BME280;68207;50.078;19.936;2023-05-07T00:17:06;99141.77;;;11.91;74.85
78857;BME280;68207;50.078;19.936;2023-05-07T00:19:31;99143.62;;;11.92;74.75
78857;BME280;68207;50.078;19.936;2023-05-07T00:21:57;99149.88;;;11.93;74.71
78857;BME280;68207;50.078;19.936;2023-05-07T00:24:23;99145.84;;;11.93;74.64
78857;BME280;68207;50.078;19.936;2023-05-07T00:26:49;99146.88;;;11.92;74.43
78857;BME280;68207;50.078;19.936;2023-05-07T00:29:14;99147.16;;;11.89;74.45
78857;BME280;68207;50.078;19.936;2023-05-07T00:31:40;99145.40;;;11.87;74.39
78857;BME280;68207;50.078;19.936;2023-05-07T00:34:06;99150.64;;;11.88;74.49
78857;BME280;68207;50.078;19.936;2023-05-07T00:36:31;99150.25;;;11.88;74.44
78857;BME280;68207;50.078;19.936;2023-05-07T00:38:59;99152.52;;;11.87;74.46
78857;BME280;68207;50.078;19.936;2023-05-07T00:41:25;99150.11;;;11.85;74.44
78857;BME280;68207;50.078;19.936;2023-05-07T00:43:50;99153.99;;;11.83;74.40
78857;BME280;68207;50.078;19.936;2023-05-07T00:46:17;99152.67;;;11.81;74.52
78857;BME280;68207;50.078;19.936;2023-05-07T00:48:42;99158.97;;;11.79;74.47
78857;BME280;68207;50.078;19.936;2023-05-07T00:51:09;99157.55;;;11.78;74.45
78857;BME280;68207;50.078;19.936;2023-05-07T00:53:36;99161.00;;;11.79;74.49
78857;BME280;68207;50.078;19.936;2023-05-07T00:56:02;99160.60;;;11.80;74.54
78857;BME280;68207;50.078;19.936;2023-05-07T00:58:27;99159.23;;;11.79;74.38
78857;BME280;68207;50.078;19.936;2023-05-07T01:00:52;99160.14;;;11.77;74.54
78857;BME280;68207;50.078;19.936;2023-05-07T01:03:18;99159.73;;;11.75;74.40
78857;BME280;68207;50.078;19.936;2023-05-07T01:05:45;99156.66;;;11.72;74.37
78857;BME280;68207;50.078;19.936;2023-05-07T01:08:13;99162.67;;;11.71;74.28
78857;BME280;68207;50.078;19.936;2023-05-07T01:10:40;99158.85;;;11.70;74.14
78857;BME280;68207;50.078;19.936;2023-05-07T01:13:09;99163.23;;;11.69;74.25
78857;BME280;68207;50.078;19.936;2023-05-07T01:15:35;99159.46;;;11.66;74.11
78857;BME280;68207;50.078;19.936;2023-05-07T01:18:00;99163.40;;;11.64;74.09
78857;BME280;68207;50.078;19.936;2023-05-07T01:20:27;99164.31;;;11.61;74.10
78857;BME280;68207;50.078;19.936;2023-05-07T01:22:53;99164.87;;;11.56;74.17
78857;BME280;68207;50.078;19.936;2023-05-07T01:25:18;99168.59;;;11.55;74.05
78857;BME280;68207;50.078;19.936;2023-05-07T01:27:43;99167.83;;;11.54;74.13
78857;BME280;68207;50.078;19.936;2023-05-07T01:30:09;99168.27;;;11.53;74.18
78857;BME280;68207;50.078;19.936;2023-05-07T01:32:43;99168.27;;;11.52;74.06
78857;BME280;68207;50.078;19.936;2023-05-07T01:35:13;99173.33;;;11.49;74.20
78857;BME280;68207;50.078;19.936;2023-05-07T01:37:40;99172.52;;;11.45;74.28
78857;BME280;68207;50.078;19.936;2023-05-07T01:40:06;99173.69;;;11.42;74.43
78857;BME280;68207;50.078;19.936;2023-05-07T01:42:32;99173.46;;;11.40;74.33
78857;BME280;68207;50.078;19.936;2023-05-07T01:44:58;99176.06;;;11.36;74.24
78857;BME280;68207;50.078;19.936;2023-05-07T01:47:24;99178.15;;;11.31;74.56
78857;BME280;68207;50.078;19.936;2023-05-07T01:49:50;99180.15;;;11.28;74.37
78857;BME280;68207;50.078;19.936;2023-05-07T01:52:15;99178.70;;;11.23;74.49
78857;BME280;68207;50.078;19.936;2023-05-07T01:54:41;99181.30;;;11.19;74.51
78857;BME280;68207;50.078;19.936;2023-05-07T01:57:06;99183.67;;;11.14;74.68
78857;BME280;68207;50.078;19.936;2023-05-07T01:59:31;99179.85;;;11.11;74.51
78857;BME280;68207;50.078;19.936;2023-05-07T02:01:57;99185.34;;;11.10;74.77
78857;BME280;68207;50.078;19.936;2023-05-07T02:04:22;99186.34;;;11.07;74.81
78857;BME280;68207;50.078;19.936;2023-05-07T02:06:47;99186.29;;;11.05;74.75
78857;BME280;68207;50.078;19.936;2023-05-07T02:09:13;99186.85;;;11.01;74.85
78857;BME280;68207;50.078;19.936;2023-05-07T02:11:40;99185.90;;;10.96;74.64
78857;BME280;68207;50.078;19.936;2023-05-07T02:14:05;99181.63;;;10.92;74.61
78857;BME280;68207;50.078;19.936;2023-05-07T02:16:34;99186.27;;;10.92;74.69
78857;BME280;68207;50.078;19.936;2023-05-07T02:18:59;99185.69;;;10.91;74.59
78857;BME280;68207;50.078;19.936;2023-05-07T02:21:25;99187.47;;;10.89;74.67
78857;BME280;68207;50.078;19.936;2023-05-07T02:23:50;99187.45;;;10.86;74.71
78857;BME280;68207;50.078;19.936;2023-05-07T02:26:15;99188.73;;;10.82;74.62
78857;BME280;68207;50.078;19.936;2023-05-07T02:28:41;99186.70;;;10.78;74.64
78857;BME280;68207;50.078;19.936;2023-05-07T02:31:06;99186.68;;;10.75;74.69
78857;BME280;68207;50.078;19.936;2023-05-07T02:33:31;99186.59;;;10.75;74.61
78857;BME280;68207;50.078;19.936;2023-05-07T02:35:57;99190.27;;;10.75;74.69
78857;BME280;68207;50.078;19.936;2023-05-07T02:38:30;99194.55;;;10.74;74.74
78857;BME280;68207;50.078;19.936;2023-05-07T02:40:55;99195.05;;;10.72;74.71
78857;BME280;68207;50.078;19.936;2023-05-07T02:43:20;99196.08;;;10.70;74.87
78857;BME280;68207;50.078;19.936;2023-05-07T02:45:45;99199.52;;;10.68;74.81
78857;BME280;68207;50.078;19.936;2023-05-07T02:48:11;99201.31;;;10.65;75.01
78857;BME280;68207;50.078;19.936;2023-05-07T02:50:36;99190.98;;;10.59;74.76
78857;BME280;68207;50.078;19.936;2023-05-07T02:53:01;99195.83;;;10.60;74.70
78857;BME280;68207;50.078;19.936;2023-05-07T02:55:26;99200.59;;;10.57;74.70
78857;BME280;68207;50.078;19.936;2023-05-07T02:57:52;99204.73;;;10.54;74.77
78857;BME280;68207;50.078;19.936;2023-05-07T03:00:18;99208.91;;;10.53;74.89
78857;BME280;68207;50.078;19.936;2023-05-07T03:02:47;99209.20;;;10.52;75.00
78857;BME280;68207;50.078;19.936;2023-05-07T03:05:12;99208.31;;;10.49;74.98
78857;BME280;68207;50.078;19.936;2023-05-07T03:07:38;99208.75;;;10.48;74.91
78857;BME280;68207;50.078;19.936;2023-05-07T03:10:04;99209.83;;;10.48;74.91
78857;BME280;68207;50.078;19.936;2023-05-07T03:12:30;99214.34;;;10.47;74.83
78857;BME280;68207;50.078;19.936;2023-05-07T03:14:56;99215.80;;;10.43;74.67
78857;BME280;68207;50.078;19.936;2023-05-07T03:17:21;99216.78;;;10.41;74.76
78857;BME280;68207;50.078;19.936;2023-05-07T03:19:47;99221.13;;;10.38;74.78
78857;BME280;68207;50.078;19.936;2023-05-07T03:22:12;99227.98;;;10.35;74.86
78857;BME280;68207;50.078;19.936;2023-05-07T03:24:37;99222.55;;;10.35;74.83
78857;BME280;68207;50.078;19.936;2023-05-07T03:27:03;99226.73;;;10.36;74.60
78857;BME280;68207;50.078;19.936;2023-05-07T03:29:28;99230.39;;;10.36;74.62
78857;BME280;68207;50.078;19.936;2023-05-07T03:31:53;99232.59;;;10.35;74.62
78857;BME280;68207;50.078;19.936;2023-05-07T03:34:19;99238.11;;;10.31;74.67
78857;BME280;68207;50.078;19.936;2023-05-07T03:36:48;99243.95;;;10.26;74.39
78857;BME280;68207;50.078;19.936;2023-05-07T03:39:13;99240.04;;;10.20;74.51
78857;BME280;68207;50.078;19.936;2023-05-07T03:41:38;99245.13;;;10.19;74.75
78857;BME280;68207;50.078;19.936;2023-05-07T03:44:04;99250.20;;;10.19;74.57
78857;BME280;68207;50.078;19.936;2023-05-07T03:46:29;99249.87;;;10.19;74.73
78857;BME280;68207;50.078;19.936;2023-05-07T03:48:54;99253.07;;;10.17;74.41
78857;BME280;68207;50.078;19.936;2023-05-07T03:51:20;99255.95;;;10.13;74.48
78857;BME280;68207;50.078;19.936;2023-05-07T03:53:45;99258.19;;;10.08;74.28
78857;BME280;68207;50.078;19.936;2023-05-07T03:56:10;99260.13;;;10.03;74.54
78857;BME280;68207;50.078;19.936;2023-05-07T03:58:36;99262.16;;;9.99;74.58
78857;BME280;68207;50.078;19.936;2023-05-07T04:01:01;99264.09;;;9.98;74.48
78857;BME280;68207;50.078;19.936;2023-05-07T04:03:27;99266.33;;;9.98;74.52
78857;BME280;68207;50.078;19.936;2023-05-07T04:05:52;99274.38;;;9.97;74.50
78857;BME280;68207;50.078;19.936;2023-05-07T04:08:17;99271.49;;;9.96;74.48
78857;BME280;68207;50.078;19.936;2023-05-07T04:10:42;99274.42;;;9.92;74.18
78857;BME280;68207;50.078;19.936;2023-05-07T04:13:08;99274.85;;;9.88;74.33
78857;BME280;68207;50.078;19.936;2023-05-07T04:15:33;99277.73;;;9.84;74.35
78857;BME280;68207;50.078;19.936;2023-05-07T04:17:58;99282.29;;;9.81;74.35
78857;BME280;68207;50.078;19.936;2023-05-07T04:20:24;99281.45;;;9.79;74.06
78857;BME280;68207;50.078;19.936;2023-05-07T04:22:49;99285.36;;;9.79;74.11
78857;BME280;68207;50.078;19.936;2023-05-07T04:25:15;99284.93;;;9.78;74.12
78857;BME280;68207;50.078;19.936;2023-05-07T04:27:41;99286.11;;;9.77;73.92
78857;BME280;68207;50.078;19.936;2023-05-07T04:30:07;99288.61;;;9.75;74.03
78857;BME280;68207;50.078;19.936;2023-05-07T04:32:32;99289.32;;;9.71;74.13
78857;BME280;68207;50.078;19.936;2023-05-07T04:34:57;99292.20;;;9.67;74.01
78857;BME280;68207;50.078;19.936;2023-05-07T04:37:23;99298.83;;;9.64;74.14
78857;BME280;68207;50.078;19.936;2023-05-07T04:39:48;99305.44;;;9.65;73.99
78857;BME280;68207;50.078;19.936;2023-05-07T04:42:17;99306.56;;;9.66;74.05
78857;BME280;68207;50.078;19.936;2023-05-07T04:44:44;99307.63;;;9.66;74.05
78857;BME280;68207;50.078;19.936;2023-05-07T04:47:10;99312.76;;;9.66;74.39
78857;BME280;68207;50.078;19.936;2023-05-07T04:49:36;99320.13;;;9.65;74.25
78857;BME280;68207;50.078;19.936;2023-05-07T04:52:02;99320.27;;;9.64;74.35
78857;BME280;68207;50.078;19.936;2023-05-07T04:54:28;99321.55;;;9.63;74.36
78857;BME280;68207;50.078;19.936;2023-05-07T04:56:53;99325.43;;;9.65;74.53
78857;BME280;68207;50.078;19.936;2023-05-07T04:59:19;99331.61;;;9.66;74.25
78857;BME280;68207;50.078;19.936;2023-05-07T05:01:44;99335.27;;;9.67;74.47
78857;BME280;68207;50.078;19.936;2023-05-07T05:04:09;99337.91;;;9.67;74.28
78857;BME280;68207;50.078;19.936;2023-05-07T05:06:35;99336.94;;;9.66;74.30
78857;BME280;68207;50.078;19.936;2023-05-07T05:09:00;99343.35;;;9.64;74.60
78857;BME280;68207;50.078;19.936;2023-05-07T05:11:26;99342.67;;;9.62;74.38
78857;BME280;68207;50.078;19.936;2023-05-07T05:13:51;99347.73;;;9.59;74.08
78857;BME280;68207;50.078;19.936;2023-05-07T05:16:16;99352.55;;;9.59;74.34
78857;BME280;68207;50.078;19.936;2023-05-07T05:18:41;99351.77;;;9.59;73.96
78857;BME280;68207;50.078;19.936;2023-05-07T05:21:07;99351.71;;;9.58;73.93
78857;BME280;68207;50.078;19.936;2023-05-07T05:23:32;99353.73;;;9.56;73.87
78857;BME280;68207;50.078;19.936;2023-05-07T05:25:58;99353.48;;;9.53;73.84
78857;BME280;68207;50.078;19.936;2023-05-07T05:28:23;99359.50;;;9.51;73.96
78857;BME280;68207;50.078;19.936;2023-05-07T05:30:49;99363.85;;;9.48;73.96
78857;BME280;68207;50.078;19.936;2023-05-07T05:33:14;99366.38;;;9.44;74.10
78857;BME280;68207;50.078;19.936;2023-05-07T05:35:40;99375.01;;;9.44;73.98
78857;BME280;68207;50.078;19.936;2023-05-07T05:38:06;99377.93;;;9.45;74.18
78857;BME280;68207;50.078;19.936;2023-05-07T05:40:31;99382.36;;;9.45;74.00
78857;BME280;68207;50.078;19.936;2023-05-07T05:42:57;99388.02;;;9.45;74.03
78857;BME280;68207;50.078;19.936;2023-05-07T05:45:22;99389.52;;;9.44;74.30
78857;BME280;68207;50.078;19.936;2023-05-07T05:47:47;99395.79;;;9.41;74.06
78857;BME280;68207;50.078;19.936;2023-05-07T05:50:13;99400.48;;;9.37;74.30
78857;BME280;68207;50.078;19.936;2023-05-07T05:52:40;99403.17;;;9.27;74.02
78857;BME280;68207;50.078;19.936;2023-05-07T05:55:06;99403.31;;;9.24;74.20
78857;BME280;68207;50.078;19.936;2023-05-07T05:57:32;99402.59;;;9.24;74.38
78857;BME280;68207;50.078;19.936;2023-05-07T05:59:57;99404.66;;;9.23;74.11
78857;BME280;68207;50.078;19.936;2023-05-07T06:02:22;99408.52;;;9.21;74.21
78857;BME280;68207;50.078;19.936;2023-05-07T06:04:48;99413.37;;;9.20;74.26
78857;BME280;68207;50.078;19.936;2023-05-07T06:07:13;99414.80;;;9.18;74.45
78857;BME280;68207;50.078;19.936;2023-05-07T06:09:38;99417.48;;;9.16;74.40
78857;BME280;68207;50.078;19.936;2023-05-07T06:12:04;99418.51;;;9.15;74.12
78857;BME280;68207;50.078;19.936;2023-05-07T06:14:30;99421.98;;;9.14;74.05
78857;BME280;68207;50.078;19.936;2023-05-07T06:16:55;99422.41;;;9.11;74.23
78857;BME280;68207;50.078;19.936;2023-05-07T06:19:20;99419.42;;;9.06;73.89
78857;BME280;68207;50.078;19.936;2023-05-07T06:21:49;99419.44;;;9.04;74.01
78857;BME280;68207;50.078;19.936;2023-05-07T06:24:14;99420.96;;;9.01;73.70
78857;BME280;68207;50.078;19.936;2023-05-07T06:26:39;99422.59;;;8.99;73.67
78857;BME280;68207;50.078;19.936;2023-05-07T06:29:06;99425.89;;;8.96;73.80
78857;BME280;68207;50.078;19.936;2023-05-07T06:31:31;99424.98;;;8.93;73.99
78857;BME280;68207;50.078;19.936;2023-05-07T06:33:57;99428.32;;;8.93;73.82
78857;BME280;68207;50.078;19.936;2023-05-07T06:36:22;99429.13;;;8.95;73.99
78857;BME280;68207;50.078;19.936;2023-05-07T06:38:48;99433.69;;;8.97;73.90
78857;BME280;68207;50.078;19.936;2023-05-07T06:41:13;99428.42;;;8.97;73.77
78857;BME280;68207;50.078;19.936;2023-05-07T06:43:38;99431.55;;;8.96;73.65
78857;BME280;68207;50.078;19.936;2023-05-07T06:46:04;99431.98;;;8.95;73.50
78857;BME280;68207;50.078;19.936;2023-05-07T06:48:30;99436.89;;;8.93;73.50
78857;BME280;68207;50.078;19.936;2023-05-07T06:50:55;99437.64;;;8.93;73.44
78857;BME280;68207;50.078;19.936;2023-05-07T06:53:22;99436.85;;;8.94;73.61
78857;BME280;68207;50.078;19.936;2023-05-07T06:55:48;99436.88;;;8.97;73.58
78857;BME280;68207;50.078;19.936;2023-05-07T06:58:13;99439.41;;;9.02;73.57
78857;BME280;68207;50.078;19.936;2023-05-07T07:00:39;99445.05;;;9.05;73.41
78857;BME280;68207;50.078;19.936;2023-05-07T07:03:05;99447.42;;;9.06;73.22
78857;BME280;68207;50.078;19.936;2023-05-07T07:05:31;99450.44;;;9.06;73.28
78857;BME280;68207;50.078;19.936;2023-05-07T07:07:56;99452.76;;;9.08;73.12
78857;BME280;68207;50.078;19.936;2023-05-07T07:10:22;99458.47;;;9.07;73.15
78857;BME280;68207;50.078;19.936;2023-05-07T07:12:48;99459.34;;;9.05;73.10
78857;BME280;68207;50.078;19.936;2023-05-07T07:15:14;99459.75;;;9.03;73.32
78857;BME280;68207;50.078;19.936;2023-05-07T07:17:39;99466.09;;;9.06;73.04
78857;BME280;68207;50.078;19.936;2023-05-07T07:20:05;99466.42;;;9.08;72.93
78857;BME280;68207;50.078;19.936;2023-05-07T07:22:31;99470.29;;;9.09;72.91
78857;BME280;68207;50.078;19.936;2023-05-07T07:24:56;99476.06;;;9.05;72.68
78857;BME280;68207;50.078;19.936;2023-05-07T07:27:21;99477.57;;;9.03;72.97
78857;BME280;68207;50.078;19.936;2023-05-07T07:29:47;99479.63;;;9.01;72.71
78857;BME280;68207;50.078;19.936;2023-05-07T07:32:12;99481.77;;;9.01;72.83
78857;BME280;68207;50.078;19.936;2023-05-07T07:34:37;99483.30;;;9.02;72.98
78857;BME280;68207;50.078;19.936;2023-05-07T07:37:02;99485.37;;;9.00;72.53
78857;BME280;68207;50.078;19.936;2023-05-07T07:39:31;99490.29;;;9.04;72.70
78857;BME280;68207;50.078;19.936;2023-05-07T07:41:57;99493.73;;;9.10;72.77
78857;BME280;68207;50.078;19.936;2023-05-07T07:44:22;99497.11;;;9.15;72.58
78857;BME280;68207;50.078;19.936;2023-05-07T07:46:47;99499.84;;;9.20;72.74
78857;BME280;68207;50.078;19.936;2023-05-07T07:49:12;99502.27;;;9.22;72.75
78857;BME280;68207;50.078;19.936;2023-05-07T07:51:38;99502.66;;;9.23;72.58
78857;BME280;68207;50.078;19.936;2023-05-07T07:54:03;99507.84;;;9.24;72.61
78857;BME280;68207;50.078;19.936;2023-05-07T07:56:29;99506.28;;;9.24;72.04
78857;BME280;68207;50.078;19.936;2023-05-07T07:58:54;99509.11;;;9.24;72.17
78857;BME280;68207;50.078;19.936;2023-05-07T08:01:19;99510.95;;;9.21;72.21
78857;BME280;68207;50.078;19.936;2023-05-07T08:03:45;99513.84;;;9.26;72.20
78857;BME280;68207;50.078;19.936;2023-05-07T08:06:10;99515.29;;;9.30;72.22
78857;BME280;68207;50.078;19.936;2023-05-07T08:08:35;99517.74;;;9.30;72.09
78857;BME280;68207;50.078;19.936;2023-05-07T08:11:01;99519.33;;;9.30;71.87
78857;BME280;68207;50.078;19.936;2023-05-07T08:13:26;99523.03;;;9.30;71.77
78857;BME280;68207;50.078;19.936;2023-05-07T08:15:51;99523.14;;;9.27;71.60
78857;BME280;68207;50.078;19.936;2023-05-07T08:18:17;99528.50;;;9.24;71.55
78857;BME280;68207;50.078;19.936;2023-05-07T08:20:42;99534.73;;;9.20;71.46
78857;BME280;68207;50.078;19.936;2023-05-07T08:23:08;99535.64;;;9.14;71.59
78857;BME280;68207;50.078;19.936;2023-05-07T08:25:34;99534.50;;;9.10;71.54
78857;BME280;68207;50.078;19.936;2023-05-07T08:28:00;99537.35;;;9.08;71.80
78857;BME280;68207;50.078;19.936;2023-05-07T08:30:25;99542.06;;;9.06;71.67
78857;BME280;68207;50.078;19.936;2023-05-07T08:32:50;99544.41;;;9.04;72.18
78857;BME280;68207;50.078;19.936;2023-05-07T08:35:16;99551.47;;;9.00;72.08
78857;BME280;68207;50.078;19.936;2023-05-07T08:37:41;99557.14;;;8.98;71.97
78857;BME280;68207;50.078;19.936;2023-05-07T08:40:07;99561.36;;;8.96;72.13
78857;BME280;68207;50.078;19.936;2023-05-07T08:42:35;99565.65;;;8.96;72.34
78857;BME280;68207;50.078;19.936;2023-05-07T08:45:02;99569.09;;;8.93;72.29
78857;BME280;68207;50.078;19.936;2023-05-07T08:47:43;99569.46;;;8.93;72.45
78857;BME280;68207;50.078;19.936;2023-05-07T08:50:12;99572.60;;;8.93;71.96
78857;BME280;68207;50.078;19.936;2023-05-07T08:52:39;99573.26;;;8.95;72.50
78857;BME280;68207;50.078;19.936;2023-05-07T08:55:05;99577.63;;;8.96;71.89
78857;BME280;68207;50.078;19.936;2023-05-07T08:57:31;99579.00;;;8.94;72.00
78857;BME280;68207;50.078;19.936;2023-05-07T08:59:56;99582.56;;;8.92;71.92
78857;BME280;68207;50.078;19.936;2023-05-07T09:02:22;99584.95;;;8.90;71.67
78857;BME280;68207;50.078;19.936;2023-05-07T09:04:47;99586.28;;;8.85;71.47
78857;BME280;68207;50.078;19.936;2023-05-07T09:07:13;99587.52;;;8.81;71.99
78857;BME280;68207;50.078;19.936;2023-05-07T09:09:38;99591.31;;;8.78;71.83
78857;BME280;68207;50.078;19.936;2023-05-07T09:12:03;99588.92;;;8.79;71.66
78857;BME280;68207;50.078;19.936;2023-05-07T09:14:29;99593.38;;;8.83;71.67
78857;BME280;68207;50.078;19.936;2023-05-07T09:16:56;99593.94;;;8.82;71.91
78857;BME280;68207;50.078;19.936;2023-05-07T09:19:26;99600.55;;;8.81;71.78
78857;BME280;68207;50.078;19.936;2023-05-07T09:22:01;99604.86;;;8.78;71.52
78857;BME280;68207;50.078;19.936;2023-05-07T09:24:27;99607.71;;;8.74;71.61
78857;BME280;68207;50.078;19.936;2023-05-07T09:27:00;99611.13;;;8.71;71.68
78857;BME280;68207;50.078;19.936;2023-05-07T09:29:26;99614.19;;;8.69;72.05
78857;BME280;68207;50.078;19.936;2023-05-07T09:31:54;99616.66;;;8.67;71.84
78857;BME280;68207;50.078;19.936;2023-05-07T09:34:19;99621.11;;;8.69;71.87
78857;BME280;68207;50.078;19.936;2023-05-07T09:36:44;99622.83;;;8.71;71.84
78857;BME280;68207;50.078;19.936;2023-05-07T09:39:10;99621.39;;;8.69;71.79
78857;BME280;68207;50.078;19.936;2023-05-07T09:41:43;99621.36;;;8.68;71.68
78857;BME280;68207;50.078;19.936;2023-05-07T09:44:10;99623.34;;;8.68;71.77
78857;BME280;68207;50.078;19.936;2023-05-07T09:46:36;99625.60;;;8.66;71.75
78857;BME280;68207;50.078;19.936;2023-05-07T09:49:06;99629.83;;;8.64;71.86
78857;BME280;68207;50.078;19.936;2023-05-07T09:51:39;99629.30;;;8.62;71.93
78857;BME280;68207;50.078;19.936;2023-05-07T09:54:06;99634.34;;;8.61;71.91
78857;BME280;68207;50.078;19.936;2023-05-07T09:56:32;99632.30;;;8.62;71.74
78857;BME280;68207;50.078;19.936;2023-05-07T09:59:01;99641.33;;;8.66;72.14
78857;BME280;68207;50.078;19.936;2023-05-07T10:01:27;99640.36;;;8.68;72.22
78857;BME280;68207;50.078;19.936;2023-05-07T10:03:53;99641.62;;;8.70;72.02
78857;BME280;68207;50.078;19.936;2023-05-07T10:06:20;99642.04;;;8.69;72.11
78857;BME280;68207;50.078;19.936;2023-05-07T10:08:46;99644.52;;;8.69;72.10
78857;BME280;68207;50.078;19.936;2023-05-07T10:11:12;99642.39;;;8.69;71.78
78857;BME280;68207;50.078;19.936;2023-05-07T10:13:37;99644.27;;;8.70;71.94
78857;BME280;68207;50.078;19.936;2023-05-07T10:16:06;99649.04;;;8.72;72.12
78857;BME280;68207;50.078;19.936;2023-05-07T10:18:32;99650.73;;;8.76;71.74
78857;BME280;68207;50.078;19.936;2023-05-07T10:23:29;99655.41;;;8.85;71.44
78857;BME280;68207;50.078;19.936;2023-05-07T10:25:57;99657.77;;;8.86;71.74
78857;BME280;68207;50.078;19.936;2023-05-07T10:28:24;99659.89;;;8.87;71.57
78857;BME280;68207;50.078;19.936;2023-05-07T10:33:29;99667.84;;;8.85;71.38
78857;BME280;68207;50.078;19.936;2023-05-07T10:35:58;99670.51;;;8.83;71.61
78857;BME280;68207;50.078;19.936;2023-05-07T10:38:26;99671.41;;;8.77;71.61
78857;BME280;68207;50.078;19.936;2023-05-07T10:40:52;99675.20;;;8.75;71.53
78857;BME280;68207;50.078;19.936;2023-05-07T10:43:17;99676.67;;;8.77;71.57
78857;BME280;68207;50.078;19.936;2023-05-07T10:45:43;99677.10;;;8.80;71.49
78857;BME280;68207;50.078;19.936;2023-05-07T10:48:16;99677.70;;;8.82;71.38
78857;BME280;68207;50.078;19.936;2023-05-07T10:50:43;99678.39;;;8.84;71.35
78857;BME280;68207;50.078;19.936;2023-05-07T10:55:46;99679.30;;;8.89;71.13
78857;BME280;68207;50.078;19.936;2023-05-07T10:58:27;99685.11;;;8.91;71.07
78857;BME280;68207;50.078;19.936;2023-05-07T11:01:00;99685.52;;;8.90;71.17
78857;BME280;68207;50.078;19.936;2023-05-07T11:03:27;99689.62;;;8.86;71.20
78857;BME280;68207;50.078;19.936;2023-05-07T11:06:14;99693.61;;;8.83;71.12
78857;BME280;68207;50.078;19.936;2023-05-07T11:11:17;99691.81;;;8.85;71.32
78857;BME280;68207;50.078;19.936;2023-05-07T11:13:48;99692.51;;;8.87;71.52
78857;BME280;68207;50.078;19.936;2023-05-07T11:16:21;99695.35;;;8.89;71.35
78857;BME280;68207;50.078;19.936;2023-05-07T11:18:53;99693.18;;;8.90;71.41
78857;BME280;68207;50.078;19.936;2023-05-07T11:21:35;99698.61;;;8.91;71.20
78857;BME280;68207;50.078;19.936;2023-05-07T11:24:02;99693.58;;;8.91;70.75
78857;BME280;68207;50.078;19.936;2023-05-07T11:26:30;99692.52;;;8.89;70.74
78857;BME280;68207;50.078;19.936;2023-05-07T11:28:56;99695.69;;;8.89;70.69
78857;BME280;68207;50.078;19.936;2023-05-07T11:31:27;99690.55;;;8.87;70.63
78857;BME280;68207;50.078;19.936;2023-05-07T11:33:54;99694.48;;;8.91;70.72
78857;BME280;68207;50.078;19.936;2023-05-07T11:36:21;99696.48;;;8.95;70.80
78857;BME280;68207;50.078;19.936;2023-05-07T11:38:47;99697.40;;;9.01;70.51
78857;BME280;68207;50.078;19.936;2023-05-07T11:41:12;99703.81;;;9.05;70.75
78857;BME280;68207;50.078;19.936;2023-05-07T11:43:38;99701.68;;;9.11;70.55
78857;BME280;68207;50.078;19.936;2023-05-07T11:46:09;99703.56;;;9.15;70.02
78857;BME280;68207;50.078;19.936;2023-05-07T11:48:36;99704.80;;;9.19;69.52
78857;BME280;68207;50.078;19.936;2023-05-07T11:51:03;99706.23;;;9.21;69.10
78857;BME280;68207;50.078;19.936;2023-05-07T11:53:41;99708.56;;;9.24;69.16
78857;BME280;68207;50.078;19.936;2023-05-07T11:56:17;99709.09;;;9.26;69.21
78857;BME280;68207;50.078;19.936;2023-05-07T11:58:43;99711.38;;;9.28;68.99
78857;BME280;68207;50.078;19.936;2023-05-07T12:01:10;99713.52;;;9.26;68.82
78857;BME280;68207;50.078;19.936;2023-05-07T12:03:37;99720.87;;;9.22;69.16
78857;BME280;68207;50.078;19.936;2023-05-07T12:06:05;99726.42;;;9.20;69.15
78857;BME280;68207;50.078;19.936;2023-05-07T12:08:31;99730.55;;;9.19;68.73
78857;BME280;68207;50.078;19.936;2023-05-07T12:10:56;99729.89;;;9.18;68.83
78857;BME280;68207;50.078;19.936;2023-05-07T12:13:23;99727.26;;;9.17;68.80
78857;BME280;68207;50.078;19.936;2023-05-07T12:15:53;99729.61;;;9.16;68.91
78857;BME280;68207;50.078;19.936;2023-05-07T12:18:19;99726.20;;;9.16;68.88
78857;BME280;68207;50.078;19.936;2023-05-07T12:20:46;99728.69;;;9.18;68.84
78857;BME280;68207;50.078;19.936;2023-05-07T12:23:12;99729.45;;;9.21;68.67
78857;BME280;68207;50.078;19.936;2023-05-07T12:25:38;99726.05;;;9.26;68.86
78857;BME280;68207;50.078;19.936;2023-05-07T12:28:05;99728.92;;;9.29;68.41
78857;BME280;68207;50.078;19.936;2023-05-07T12:30:36;99732.80;;;9.31;68.74
78857;BME280;68207;50.078;19.936;2023-05-07T12:33:02;99731.73;;;9.33;68.23
78857;BME280;68207;50.078;19.936;2023-05-07T12:35:31;99737.15;;;9.33;68.25
78857;BME280;68207;50.078;19.936;2023-05-07T12:37:59;99737.85;;;9.33;68.01
78857;BME280;68207;50.078;19.936;2023-05-07T12:40:35;99738.27;;;9.33;68.47
78857;BME280;68207;50.078;19.936;2023-05-07T12:43:01;99745.40;;;9.36;68.09
78857;BME280;68207;50.078;19.936;2023-05-07T12:45:26;99750.75;;;9.39;68.12
78857;BME280;68207;50.078;19.936;2023-05-07T12:47:51;99749.05;;;9.40;67.87
78857;BME280;68207;50.078;19.936;2023-05-07T12:50:17;99745.11;;;9.37;67.79
78857;BME280;68207;50.078;19.936;2023-05-07T12:52:43;99747.52;;;9.34;67.53
78857;BME280;68207;50.078;19.936;2023-05-07T12:55:12;99744.88;;;9.32;67.88
78857;BME280;68207;50.078;19.936;2023-05-07T12:57:43;99748.05;;;9.30;67.47
78857;BME280;68207;50.078;19.936;2023-05-07T13:00:10;99750.45;;;9.29;67.77
78857;BME280;68207;50.078;19.936;2023-05-07T13:02:41;99745.66;;;9.29;67.81